createdAt,value
2018-09-21T00:00:57.438Z,58.93
2018-09-21T00:03:25.855Z,58.77
2018-09-21T00:05:54.297Z,58.77
2018-09-21T00:08:22.762Z,58.91
2018-09-21T00:10:51.204Z,59.09
2018-09-21T00:13:19.605Z,58.85
2018-09-21T00:15:48.043Z,59.67
2018-09-21T00:18:16.459Z,59.57
2018-09-21T00:20:44.906Z,59.42
2018-09-21T00:23:13.289Z,58.94
2018-09-21T00:25:41.902Z,59.47
2018-09-21T00:28:10.302Z,59.17
2018-09-21T00:30:38.690Z,59.79
2018-09-21T00:33:07.139Z,59.23
2018-09-21T00:35:35.546Z,59.99
2018-09-21T00:38:03.979Z,58.88
2018-09-21T00:40:32.386Z,59.11
2018-09-21T00:43:00.883Z,59.84
2018-09-21T00:45:29.286Z,60.20
2018-09-21T00:47:57.733Z,59.91
2018-09-21T00:50:26.152Z,60.24
2018-09-21T00:52:54.589Z,59.75
2018-09-21T00:55:23.001Z,60.24
2018-09-21T00:57:51.425Z,60.09
2018-09-21T01:00:19.931Z,59.97
2018-09-21T01:02:48.405Z,60.12
2018-09-21T01:05:16.834Z,60.50
2018-09-21T01:07:45.301Z,59.64
2018-09-21T01:10:13.748Z,59.84
2018-09-21T01:12:42.239Z,59.47
2018-09-21T01:15:10.707Z,59.36
2018-09-21T01:17:39.187Z,59.86
2018-09-21T01:20:07.634Z,59.44
2018-09-21T01:22:36.088Z,59.92
2018-09-21T01:25:04.599Z,59.74
2018-09-21T01:27:33.048Z,59.65
2018-09-21T01:30:02.150Z,59.33
2018-09-21T01:32:30.583Z,59.25
2018-09-21T01:34:59.056Z,58.84
2018-09-21T01:37:27.542Z,59.99
2018-09-21T01:39:56.019Z,60.10
2018-09-21T01:42:24.456Z,59.69
2018-09-21T01:44:52.936Z,59.96
2018-09-21T01:47:21.395Z,59.59
2018-09-21T01:49:49.874Z,59.22
2018-09-21T01:52:18.374Z,59.01
2018-09-21T01:54:46.858Z,59.42
2018-09-21T01:57:15.316Z,59.20
2018-09-21T01:59:43.757Z,59.72
2018-09-21T02:02:12.186Z,59.90
2018-09-21T02:04:41.370Z,59.37
2018-09-21T02:07:11.575Z,60.45
2018-09-21T02:09:40.676Z,60.46
2018-09-21T02:12:09.091Z,60.41
2018-09-21T02:14:37.554Z,61.06
2018-09-21T02:17:06.459Z,60.88
2018-09-21T02:19:34.945Z,60.97
2018-09-21T02:22:03.479Z,61.17
2018-09-21T02:24:31.958Z,61.46
2018-09-21T02:27:00.447Z,61.98
2018-09-21T02:29:28.890Z,61.87
2018-09-21T02:31:57.359Z,62.31
2018-09-21T02:34:25.786Z,62.15
2018-09-21T02:36:54.247Z,61.91
2018-09-21T02:39:22.661Z,62.01
2018-09-21T02:41:51.119Z,62.07
2018-09-21T02:44:19.577Z,61.60
2018-09-21T02:46:48.035Z,61.09
2018-09-21T02:49:16.472Z,61.17
2018-09-21T02:51:44.934Z,61.01
2018-09-21T02:54:13.386Z,61.16
2018-09-21T02:56:42.810Z,60.67
2018-09-21T02:59:11.289Z,60.66
2018-09-21T03:01:39.763Z,60.39
2018-09-21T03:04:08.210Z,60.34
2018-09-21T03:06:36.692Z,59.61
2018-09-21T03:09:08.724Z,59.32
2018-09-21T03:11:37.505Z,59.20
2018-09-21T03:14:05.992Z,59.04
2018-09-21T03:16:34.610Z,59.49
2018-09-21T03:19:03.815Z,58.91
2018-09-21T03:21:32.403Z,59.35
2018-09-21T03:24:00.886Z,58.79
2018-09-21T03:26:29.374Z,59.46
2018-09-21T03:28:57.859Z,59.76
2018-09-21T03:31:26.294Z,60.01
2018-09-21T03:33:54.753Z,60.14
2018-09-21T03:36:23.188Z,59.70
2018-09-21T03:38:51.642Z,59.87
2018-09-21T03:41:20.102Z,59.43
2018-09-21T03:43:48.600Z,59.50
2018-09-21T03:46:17.112Z,59.53
2018-09-21T03:48:45.632Z,59.41
2018-09-21T03:51:14.090Z,59.16
2018-09-21T03:53:42.554Z,59.10
2018-09-21T03:56:10.994Z,59.28
2018-09-21T03:58:39.462Z,59.03
2018-09-21T04:01:08.200Z,59.16
2018-09-21T04:03:39.208Z,59.14
2018-09-21T04:06:07.662Z,59.13
2018-09-21T04:08:36.107Z,60.17
2018-09-21T04:11:04.617Z,60.44
2018-09-21T04:13:33.036Z,60.15
2018-09-21T04:16:02.041Z,60.06
2018-09-21T04:18:30.530Z,60.51
2018-09-21T04:20:59.004Z,60.93
2018-09-21T04:23:27.450Z,60.96
2018-09-21T04:25:55.968Z,61.45
2018-09-21T04:28:24.394Z,61.67
2018-09-21T04:30:52.872Z,61.86
2018-09-21T04:33:21.319Z,61.30
2018-09-21T04:35:49.774Z,60.92
2018-09-21T04:38:18.188Z,60.74
2018-09-21T04:40:46.618Z,60.63
2018-09-21T04:43:15.079Z,60.35
2018-09-21T04:45:43.574Z,60.50
2018-09-21T04:48:11.982Z,60.22
2018-09-21T04:50:40.413Z,60.14
2018-09-21T04:53:08.875Z,60.04
2018-09-21T04:55:37.310Z,60.40
2018-09-21T04:58:05.820Z,59.93
2018-09-21T05:00:34.251Z,59.52
2018-09-21T05:03:02.927Z,58.75
2018-09-21T05:05:31.349Z,57.88
2018-09-21T05:07:59.794Z,58.84
2018-09-21T05:10:28.222Z,59.16
2018-09-21T05:12:56.675Z,58.73
2018-09-21T05:15:25.108Z,58.38
2018-09-21T05:17:53.526Z,57.79
2018-09-21T05:20:22.131Z,58.64
2018-09-21T05:22:50.617Z,58.60
2018-09-21T05:25:19.138Z,58.88
2018-09-21T05:27:47.614Z,59.03
2018-09-21T05:30:16.641Z,59.02
2018-09-21T05:32:45.074Z,59.08
2018-09-21T05:35:13.670Z,59.52
2018-09-21T05:37:42.062Z,59.61
2018-09-21T05:40:14.651Z,59.59
2018-09-21T05:42:43.072Z,60.21
2018-09-21T05:45:11.637Z,60.16
2018-09-21T05:47:40.249Z,60.10
2018-09-21T05:50:08.782Z,59.74
2018-09-21T05:52:37.184Z,59.46
2018-09-21T05:55:05.891Z,58.97
2018-09-21T05:57:34.327Z,59.13
2018-09-21T06:00:02.775Z,58.95
2018-09-21T06:02:31.263Z,58.72
2018-09-21T06:05:04.529Z,58.78
2018-09-21T06:07:33.303Z,58.37
2018-09-21T06:10:01.965Z,58.13
2018-09-21T06:12:30.410Z,57.85
2018-09-21T06:14:58.822Z,57.71
2018-09-21T06:17:27.270Z,57.20
2018-09-21T06:19:55.715Z,57.64
2018-09-21T06:22:24.438Z,56.98
2018-09-21T06:24:52.855Z,57.16
2018-09-21T06:27:21.596Z,56.91
2018-09-21T06:29:50.015Z,56.87
2018-09-21T06:32:18.459Z,56.86
2018-09-21T06:34:46.924Z,56.44
2018-09-21T06:37:15.406Z,56.25
2018-09-21T06:39:43.833Z,55.86
2018-09-21T06:42:12.298Z,55.37
2018-09-21T06:44:40.936Z,54.95
2018-09-21T06:47:09.385Z,54.39
2018-09-21T06:49:37.775Z,54.15
2018-09-21T06:52:06.412Z,52.93
2018-09-21T06:54:34.861Z,53.42
2018-09-21T06:57:03.643Z,52.33
2018-09-21T06:59:32.113Z,52.06
2018-09-21T07:02:00.570Z,52.19
2018-09-21T07:04:29.026Z,51.48
2018-09-21T07:06:57.438Z,52.08
2018-09-21T07:09:28.900Z,51.81
2018-09-21T07:11:57.327Z,51.54
2018-09-21T07:14:25.745Z,50.48
2018-09-21T07:16:54.134Z,50.68
2018-09-21T07:19:22.654Z,49.60
2018-09-21T07:21:51.077Z,50.30
2018-09-21T07:24:19.554Z,49.46
2018-09-21T07:26:47.950Z,49.14
2018-09-21T07:29:16.408Z,48.25
2018-09-21T07:31:44.811Z,48.19
2018-09-21T07:34:13.234Z,47.77
2018-09-21T07:36:41.626Z,47.24
2018-09-21T07:39:10.082Z,47.28
2018-09-21T07:41:38.482Z,47.10
2018-09-21T07:44:06.930Z,47.03
2018-09-21T07:46:35.355Z,46.12
2018-09-21T07:49:03.793Z,46.61
2018-09-21T07:51:32.240Z,45.71
2018-09-21T07:54:00.637Z,45.56
2018-09-21T07:56:29.078Z,45.65
2018-09-21T07:58:57.533Z,44.11
2018-09-21T08:01:25.961Z,43.82
2018-09-21T08:03:54.353Z,43.83
2018-09-21T08:06:22.774Z,44.66
2018-09-21T08:08:51.178Z,43.88
2018-09-21T08:11:19.611Z,43.95
2018-09-21T08:13:48.002Z,42.94
2018-09-21T08:16:16.426Z,42.60
2018-09-21T08:18:44.862Z,41.76
2018-09-21T08:21:13.321Z,42.72
2018-09-21T08:23:41.758Z,41.80
2018-09-21T08:26:10.183Z,42.09
2018-09-21T08:28:38.573Z,42.16
2018-09-21T08:31:07.001Z,41.65
2018-09-21T08:33:35.396Z,41.53
2018-09-21T08:36:03.837Z,42.40
2018-09-21T08:38:32.290Z,42.38
2018-09-21T08:41:00.713Z,42.21
2018-09-21T08:43:29.150Z,42.63
2018-09-21T08:45:57.608Z,42.08
2018-09-21T08:48:26.038Z,42.11
2018-09-21T08:50:54.459Z,41.90
2018-09-21T08:53:22.908Z,41.15
2018-09-21T08:55:51.306Z,41.73
2018-09-21T08:58:19.726Z,41.41
2018-09-21T09:00:48.204Z,40.43
2018-09-21T09:03:16.744Z,41.25
2018-09-21T09:05:49.207Z,40.71
2018-09-21T09:08:17.654Z,41.26
2018-09-21T09:10:46.098Z,41.94
2018-09-21T09:13:14.561Z,41.45
2018-09-21T09:15:42.971Z,41.28
2018-09-21T09:18:11.450Z,40.65
2018-09-21T09:20:39.876Z,40.82
2018-09-21T09:23:08.721Z,40.42
2018-09-21T09:25:37.151Z,39.27
2018-09-21T09:28:05.690Z,40.10
2018-09-21T09:30:34.294Z,39.50
2018-09-21T09:33:03.229Z,39.63
2018-09-21T09:35:31.753Z,40.32
2018-09-21T09:38:00.193Z,38.71
2018-09-21T09:40:28.641Z,39.84
2018-09-21T09:42:57.123Z,37.97
2018-09-21T09:45:25.730Z,37.74
2018-09-21T09:47:54.134Z,38.38
2018-09-21T09:50:22.582Z,38.21
2018-09-21T09:52:50.985Z,37.44
2018-09-21T09:55:19.444Z,38.26
2018-09-21T09:57:47.854Z,37.36
2018-09-21T10:00:20.434Z,36.98
2018-09-21T10:02:48.818Z,37.48
2018-09-21T10:05:17.271Z,36.62
2018-09-21T10:07:45.659Z,37.46
2018-09-21T10:10:14.520Z,36.77
2018-09-21T10:12:42.878Z,37.21
2018-09-21T10:15:11.294Z,37.22
2018-09-21T10:17:39.679Z,37.08
2018-09-21T10:20:08.161Z,37.01
2018-09-21T10:22:36.634Z,36.45
2018-09-21T10:25:05.102Z,36.33
2018-09-21T10:27:33.706Z,36.48
2018-09-21T10:30:01.905Z,35.59
2018-09-21T10:32:30.340Z,35.69
2018-09-21T10:34:58.768Z,34.70
2018-09-21T10:37:27.235Z,35.19
2018-09-21T10:39:55.670Z,35.33
2018-09-21T10:42:24.159Z,34.57
2018-09-21T10:44:52.554Z,34.95
2018-09-21T10:47:20.978Z,35.55
2018-09-21T10:49:49.461Z,35.61
2018-09-21T10:52:17.889Z,35.76
2018-09-21T10:54:46.274Z,35.25
2018-09-21T10:57:14.754Z,35.39
2018-09-21T10:59:43.214Z,35.73
2018-09-21T11:02:11.713Z,35.76
2018-09-21T11:04:40.115Z,36.24
2018-09-21T11:07:08.574Z,36.01
2018-09-21T11:09:36.951Z,36.49
2018-09-21T11:12:05.395Z,37.04
2018-09-21T11:14:33.794Z,36.52
2018-09-21T11:17:02.831Z,36.87
2018-09-21T11:19:31.249Z,37.61
2018-09-21T11:21:59.699Z,37.04
2018-09-21T11:24:28.106Z,36.36
2018-09-21T11:26:56.498Z,36.28
2018-09-21T11:29:24.922Z,36.13
2018-09-21T11:31:53.318Z,37.14
2018-09-21T11:34:22.315Z,36.55
2018-09-21T11:36:50.706Z,36.59
2018-09-21T11:39:19.158Z,36.86
2018-09-21T11:41:47.559Z,36.65
2018-09-21T11:44:15.989Z,36.28
2018-09-21T11:46:44.486Z,35.98
2018-09-21T11:49:12.870Z,35.10
2018-09-21T11:51:41.350Z,35.07
2018-09-21T11:54:09.891Z,34.43
2018-09-21T11:56:38.302Z,35.22
2018-09-21T11:59:06.750Z,34.35
2018-09-21T12:01:35.470Z,34.70
2018-09-21T12:04:03.929Z,33.70
2018-09-21T12:06:32.359Z,33.93
2018-09-21T12:09:00.789Z,34.05
2018-09-21T12:11:29.254Z,34.61
2018-09-21T12:13:57.723Z,34.86
2018-09-21T12:16:26.183Z,34.76
2018-09-21T12:18:54.604Z,34.06
2018-09-21T12:21:23.123Z,34.03
2018-09-21T12:23:51.545Z,33.53
2018-09-21T12:26:20.969Z,34.01
2018-09-21T12:28:49.522Z,33.97
2018-09-21T12:31:18.052Z,33.13
2018-09-21T12:33:46.561Z,34.05
2018-09-21T12:36:15.097Z,32.98
2018-09-21T12:38:43.697Z,32.17
2018-09-21T12:41:12.181Z,31.17
2018-09-21T12:43:40.602Z,31.34
2018-09-21T12:46:22.737Z,31.61
2018-09-21T12:48:52.538Z,32.25
2018-09-21T12:51:22.724Z,30.84
2018-09-21T12:53:51.190Z,31.22
2018-09-21T12:56:19.686Z,32.09
2018-09-21T12:58:48.636Z,31.63
2018-09-21T13:01:17.105Z,32.28
2018-09-21T13:03:45.680Z,32.60
2018-09-21T13:06:14.129Z,32.63
2018-09-21T13:08:42.582Z,31.99
2018-09-21T13:11:11.014Z,31.78
2018-09-21T13:13:39.433Z,32.12
2018-09-21T13:16:08.063Z,31.25
2018-09-21T13:18:36.734Z,31.36
2018-09-21T13:21:05.247Z,31.58
2018-09-21T13:23:33.741Z,30.18
2018-09-21T13:26:02.207Z,30.61
2018-09-21T13:28:30.666Z,30.59
2018-09-21T13:30:59.134Z,28.86
2018-09-21T13:33:27.611Z,29.20
2018-09-21T13:35:56.034Z,29.05
2018-09-21T13:38:24.672Z,29.61
2018-09-21T13:40:53.071Z,29.77
2018-09-21T13:43:21.518Z,30.02
2018-09-21T13:45:49.922Z,29.29
2018-09-21T13:48:18.662Z,29.05
2018-09-21T13:50:47.091Z,28.13
2018-09-21T13:53:15.519Z,28.58
2018-09-21T13:55:43.910Z,28.43
2018-09-21T13:58:12.335Z,28.32
2018-09-21T14:00:40.863Z,29.56
2018-09-21T14:03:09.324Z,29.81
2018-09-21T14:05:37.768Z,30.03
2018-09-21T14:08:06.218Z,30.18
2018-09-21T14:10:34.650Z,29.51
2018-09-21T14:13:03.458Z,29.66
2018-09-21T14:15:31.902Z,29.89
2018-09-21T14:18:00.310Z,30.19
2018-09-21T14:20:28.753Z,30.75
2018-09-21T14:22:57.174Z,31.96
2018-09-21T14:25:25.602Z,31.17
2018-09-21T14:27:53.997Z,31.40
2018-09-21T14:30:22.558Z,31.76
2018-09-21T14:32:50.974Z,32.08
2018-09-21T14:35:19.512Z,32.17
2018-09-21T14:37:48.045Z,32.45
2018-09-21T14:40:20.276Z,33.34
2018-09-21T14:42:48.730Z,33.58
2018-09-21T14:45:17.282Z,33.98
2018-09-21T14:47:45.721Z,33.33
2018-09-21T14:50:14.142Z,34.30
2018-09-21T14:52:42.541Z,34.11
2018-09-21T14:55:11.031Z,33.87
2018-09-21T14:57:39.441Z,34.05
2018-09-21T15:00:08.126Z,34.30
2018-09-21T15:02:36.540Z,34.09
2018-09-21T15:05:05.745Z,34.67
2018-09-21T15:07:34.154Z,33.43
2018-09-21T15:10:03.291Z,33.58
2018-09-21T15:12:31.762Z,34.23
2018-09-21T15:15:00.154Z,35.43
2018-09-21T15:17:28.650Z,34.83
2018-09-21T15:19:57.073Z,35.38
2018-09-21T15:22:25.535Z,35.05
2018-09-21T15:24:53.948Z,36.13
2018-09-21T15:27:22.386Z,35.53
2018-09-21T15:29:51.150Z,35.73
2018-09-21T15:32:19.623Z,35.93
2018-09-21T15:34:48.097Z,36.06
2018-09-21T15:37:16.604Z,36.17
2018-09-21T15:39:45.052Z,37.14
2018-09-21T15:42:13.890Z,36.88
2018-09-21T15:44:42.462Z,36.87
2018-09-21T15:47:10.910Z,37.50
2018-09-21T15:49:39.318Z,37.55
2018-09-21T15:52:07.815Z,36.92
2018-09-21T15:54:36.770Z,37.89
2018-09-21T15:57:05.230Z,37.92
2018-09-21T15:59:33.662Z,37.43
2018-09-21T16:02:02.099Z,37.98
2018-09-21T16:04:30.521Z,37.79
2018-09-21T16:06:58.981Z,37.68
2018-09-21T16:09:27.426Z,38.48
2018-09-21T16:11:55.836Z,38.27
2018-09-21T16:14:24.342Z,39.16
2018-09-21T16:16:52.694Z,38.18
2018-09-21T16:19:21.269Z,39.03
2018-09-21T16:21:49.706Z,38.77
2018-09-21T16:24:18.202Z,38.99
2018-09-21T16:26:46.570Z,39.59
2018-09-21T16:29:15.032Z,39.20
2018-09-21T16:31:43.439Z,40.07
2018-09-21T16:34:11.859Z,39.87
2018-09-21T16:36:40.327Z,40.29
2018-09-21T16:39:11.611Z,39.92
2018-09-21T16:41:40.046Z,40.13
2018-09-21T16:44:08.607Z,40.04
2018-09-21T16:46:37.093Z,40.77
2018-09-21T16:49:05.624Z,40.40
2018-09-21T16:51:34.123Z,41.02
2018-09-21T16:54:02.577Z,41.48
2018-09-21T16:56:31.014Z,41.05
2018-09-21T16:58:59.529Z,42.17
2018-09-21T17:01:27.893Z,42.33
2018-09-21T17:03:56.367Z,42.96
2018-09-21T17:06:24.770Z,43.09
2018-09-21T17:08:53.434Z,43.52
2018-09-21T17:11:21.972Z,43.83
2018-09-21T17:13:50.310Z,43.15
2018-09-21T17:16:18.750Z,43.06
2018-09-21T17:18:47.144Z,43.03
2018-09-21T17:21:15.576Z,43.32
2018-09-21T17:23:43.962Z,43.24
2018-09-21T17:26:12.399Z,43.90
2018-09-21T17:28:40.954Z,44.27
2018-09-21T17:31:12.770Z,46.47
2018-09-21T17:33:41.194Z,47.60
2018-09-21T17:36:09.631Z,46.54
2018-09-21T17:38:38.057Z,46.80
2018-09-21T17:41:06.525Z,46.04
2018-09-21T17:43:35.016Z,45.39
2018-09-21T17:46:03.450Z,45.81
2018-09-21T17:48:32.114Z,45.35
2018-09-21T17:51:00.568Z,45.23
2018-09-21T17:53:28.990Z,45.95
2018-09-21T17:55:57.438Z,46.73
2018-09-21T17:58:26.055Z,47.11
2018-09-21T18:00:54.517Z,46.97
2018-09-21T18:03:23.613Z,47.75
2018-09-21T18:05:52.026Z,47.88
2018-09-21T18:08:20.566Z,48.23
2018-09-21T18:10:49.042Z,47.29
2018-09-21T18:13:17.551Z,48.42
2018-09-21T18:15:45.961Z,47.77
2018-09-21T18:18:14.993Z,48.89
2018-09-21T18:20:43.399Z,48.77
2018-09-21T18:23:11.862Z,48.15
2018-09-21T18:25:40.361Z,48.01
2018-09-21T18:28:08.790Z,48.67
2018-09-21T18:30:38.542Z,48.50
2018-09-21T18:33:07.006Z,48.83
2018-09-21T18:35:35.868Z,48.55
2018-09-21T18:38:04.919Z,48.96
2018-09-21T18:40:34.288Z,49.67
2018-09-21T18:43:03.195Z,48.78
2018-09-21T18:45:31.617Z,49.44
2018-09-21T18:48:00.061Z,49.43
2018-09-21T18:50:28.667Z,48.90
2018-09-21T18:52:57.162Z,49.68
2018-09-21T18:55:25.592Z,50.05
2018-09-21T18:57:54.029Z,50.74
2018-09-21T19:00:22.473Z,51.52
2018-09-21T19:02:51.215Z,51.46
2018-09-21T19:05:19.694Z,52.09
2018-09-21T19:07:48.982Z,53.50
2018-09-21T19:10:18.821Z,53.60
2018-09-21T19:12:47.235Z,54.34
2018-09-21T19:15:16.210Z,55.20
2018-09-21T19:17:44.645Z,55.98
2018-09-21T19:20:13.257Z,56.60
2018-09-21T19:22:41.642Z,54.26
2018-09-21T19:25:10.082Z,55.38
2018-09-21T19:27:38.527Z,55.29
2018-09-21T19:30:06.992Z,55.64
2018-09-21T19:32:35.628Z,56.27
2018-09-21T19:35:04.128Z,55.56
2018-09-21T19:37:32.557Z,56.56
2018-09-21T19:40:01.407Z,57.82
2018-09-21T19:42:30.531Z,57.57
2018-09-21T19:44:59.127Z,58.36
2018-09-21T19:47:27.534Z,58.59
2018-09-21T19:49:56.109Z,59.77
2018-09-21T19:52:24.530Z,59.93
2018-09-21T19:54:53.165Z,60.86
2018-09-21T19:57:21.611Z,60.57
2018-09-21T19:59:50.147Z,61.12
2018-09-21T20:02:18.645Z,61.63
2018-09-21T20:04:47.126Z,58.26
2018-09-21T20:07:15.542Z,57.88
2018-09-21T20:09:44.006Z,57.63
2018-09-21T20:12:12.445Z,58.12
2018-09-21T20:14:41.850Z,58.72
2018-09-21T20:17:10.295Z,59.71
2018-09-21T20:19:39.533Z,59.18
2018-09-21T20:22:09.610Z,60.06
2018-09-21T20:24:38.044Z,59.20
2018-09-21T20:27:07.615Z,59.47
2018-09-21T20:29:36.042Z,58.95
2018-09-21T20:32:09.845Z,58.13
2018-09-21T20:34:39.090Z,59.50
2018-09-21T20:37:07.706Z,59.60
2018-09-21T20:39:36.157Z,59.67
2018-09-21T20:42:04.678Z,60.55
2018-09-21T20:44:33.098Z,60.86
2018-09-21T20:47:01.562Z,61.04
2018-09-21T20:49:30.021Z,61.19
2018-09-21T20:52:00.304Z,62.21
2018-09-21T20:54:28.802Z,61.93
2018-09-21T20:56:57.425Z,61.55
2018-09-21T20:59:26.017Z,61.63
2018-09-21T21:01:54.373Z,61.54
2018-09-21T21:04:22.883Z,61.10
2018-09-21T21:06:51.362Z,61.87
2018-09-21T21:09:20.210Z,62.02
2018-09-21T21:11:48.752Z,63.05
2018-09-21T21:14:17.538Z,63.21
2018-09-21T21:16:45.985Z,63.02
2018-09-21T21:19:14.577Z,62.51
2018-09-21T21:21:43.337Z,62.88
2018-09-21T21:24:11.829Z,62.75
2018-09-21T21:26:40.239Z,62.74
2018-09-21T21:29:08.746Z,63.13
2018-09-21T21:31:37.215Z,63.54
2018-09-21T21:34:05.682Z,62.89
2018-09-21T21:36:34.103Z,63.37
2018-09-21T21:39:03.135Z,62.75
2018-09-21T21:41:31.546Z,61.51
2018-09-21T21:43:59.992Z,62.20
2018-09-21T21:46:28.447Z,61.62
2018-09-21T21:48:56.837Z,62.94
2018-09-21T21:51:25.461Z,62.59
2018-09-21T21:53:54.038Z,63.65
2018-09-21T21:56:22.830Z,63.19
2018-09-21T21:58:52.181Z,64.25
2018-09-21T22:01:25.979Z,64.01
2018-09-21T22:03:54.475Z,64.32
2018-09-21T22:06:22.947Z,64.78
2018-09-21T22:08:52.283Z,64.59
2018-09-21T22:11:26.436Z,64.37
2018-09-21T22:14:00.365Z,64.20
2018-09-21T22:16:29.090Z,64.21
2018-09-21T22:18:57.649Z,64.09
2018-09-21T22:21:26.223Z,65.01
2018-09-21T22:23:55.098Z,64.57
2018-09-21T22:26:23.647Z,64.79
2018-09-21T22:28:52.198Z,65.14
2018-09-21T22:31:20.781Z,64.01
2018-09-21T22:33:49.343Z,65.31
2018-09-21T22:36:17.874Z,64.20
2018-09-21T22:38:47.338Z,64.79
2018-09-21T22:41:15.990Z,65.43
2018-09-21T22:43:44.463Z,65.45
2018-09-21T22:46:13.067Z,65.58
2018-09-21T22:48:41.857Z,65.95
2018-09-21T22:51:10.386Z,65.63
2018-09-21T22:53:39.170Z,66.05
2018-09-21T22:56:08.915Z,65.41
2018-09-21T22:58:38.107Z,66.06
2018-09-21T23:01:06.717Z,66.32
2018-09-21T23:03:35.249Z,67.14
2018-09-21T23:06:04.146Z,65.92
2018-09-21T23:08:32.991Z,66.42
2018-09-21T23:11:01.506Z,65.91
2018-09-21T23:13:31.019Z,65.67
2018-09-21T23:15:59.497Z,63.87
2018-09-21T23:18:27.918Z,63.84
2018-09-21T23:20:56.326Z,64.85
2018-09-21T23:23:24.949Z,64.65
2018-09-21T23:25:53.338Z,64.67
2018-09-21T23:28:21.757Z,65.10
2018-09-21T23:30:50.169Z,64.10
2018-09-21T23:33:18.618Z,62.95
2018-09-21T23:35:47.021Z,61.80
2018-09-21T23:38:15.437Z,61.50
2018-09-21T23:40:43.878Z,61.86
2018-09-21T23:43:12.314Z,62.23
2018-09-21T23:45:40.705Z,62.42
2018-09-21T23:48:09.391Z,61.45
2018-09-21T23:50:37.774Z,62.56
2018-09-21T23:53:06.169Z,61.59
2018-09-21T23:55:34.634Z,61.81
2018-09-21T23:58:03.540Z,61.57
